Time;durP1;ratioP1;P1;durP2;ratioP2;P2;SDS_P1;SDS_P2;PMS_P1;PMS_P2;Temp;Humidity;BMP_temperature;BMP_pressure;BME280_temperature;BME280_humidity;BME280_pressure;Samples;Min_cycle;Max_cycle;Signal;HPM_P1;HPM_P2
2023/05/28 00:01:55;;;;;;;1.98;0.95;;;;;;;14.19;100.00;100079.28;6099290;23;20005;-90
2023/05/28 00:04:21;;;;;;;5.60;0.50;;;;;;;14.01;100.00;100036.13;6101509;23;20020;-90
2023/05/28 00:06:48;;;;;;;0.70;0.70;;;;;;;14.09;100.00;100060.94;6125603;23;20041;-89
2023/05/28 00:09:14;;;;;;;2.13;1.50;;;;;;;14.00;100.00;100039.38;6078014;23;20516;-89
2023/05/28 00:11:40;;;;;;;0.32;0.32;;;;;;;14.12;100.00;100066.38;6100619;23;20064;-88
2023/05/28 00:14:06;;;;;;;0.28;0.28;;;;;;;14.10;100.00;100068.09;6125696;23;20013;-89
2023/05/28 00:16:35;;;;;;;0.10;0.10;;;;;;;14.15;100.00;100075.84;6099554;23;20013;-90
2023/05/28 00:19:02;;;;;;;0.52;0.52;;;;;;;13.96;100.00;100042.31;6100898;23;20499;-90
2023/05/28 00:21:27;;;;;;;0.40;0.40;;;;;;;13.91;100.00;100045.69;6077480;23;20055;-90
2023/05/28 00:23:53;;;;;;;5.40;1.95;;;;;;;14.03;100.00;100069.16;6100896;23;20387;-89
2023/05/28 00:26:18;;;;;;;0.43;0.43;;;;;;;14.07;100.00;100080.16;6076729;23;20001;-91
2023/05/28 00:28:47;;;;;;;1.23;1.13;;;;;;;14.06;100.00;100079.38;6078274;23;20021;-90
2023/05/28 00:31:13;;;;;;;0.45;0.45;;;;;;;14.17;100.00;100084.53;6076255;23;20010;-90
2023/05/28 00:33:38;;;;;;;0.63;0.57;;;;;;;14.05;100.00;100061.09;6100728;23;20091;-90
2023/05/28 00:36:05;;;;;;;0.30;0.30;;;;;;;14.16;100.00;100066.22;6100623;23;20017;-90
2023/05/28 00:38:30;;;;;;;0.65;0.65;;;;;;;14.19;100.00;100056.97;6100996;23;20013;-89
2023/05/28 00:40:56;;;;;;;0.30;0.30;;;;;;;14.37;100.00;100080.13;6124307;23;20020;-90
2023/05/28 00:43:22;;;;;;;2.17;1.05;;;;;;;14.13;99.87;100028.09;6101533;23;20021;-90
2023/05/28 00:45:50;;;;;;;0.50;0.50;;;;;;;14.21;98.45;100029.38;6099769;23;20001;-90
2023/05/28 00:48:16;;;;;;;0.25;0.25;;;;;;;14.56;98.15;100075.34;6125024;23;20764;-90
2023/05/28 00:50:42;;;;;;;1.27;1.17;;;;;;;14.34;97.94;100027.22;6076372;23;20016;-89
2023/05/28 00:53:08;;;;;;;0.70;0.60;;;;;;;14.47;97.39;100036.28;6076909;23;20009;-90
2023/05/28 00:55:34;;;;;;;0.68;0.68;;;;;;;14.68;96.77;100068.84;6076777;23;20093;-90
2023/05/28 00:58:05;;;;;;;4.95;0.30;;;;;;;14.31;97.20;100012.19;6100723;23;20356;-91
2023/05/28 01:03:30;;;;;;;0.80;0.80;;;;;;;14.73;96.78;100071.00;6118458;23;20355;-88
2023/05/28 01:05:56;;;;;;;0.20;0.20;;;;;;;14.71;96.80;100073.50;6112613;23;20026;-90
2023/05/28 01:08:21;;;;;;;0.52;0.52;;;;;;;14.66;96.20;100065.75;6124652;23;20068;-90
2023/05/28 01:10:47;;;;;;;0.60;0.60;;;;;;;14.69;96.01;100064.81;6099426;23;20013;-89
2023/05/28 01:13:12;;;;;;;0.82;0.82;;;;;;;14.60;96.22;100053.63;6099839;23;20040;-90
2023/05/28 01:15:40;;;;;;;0.40;0.40;;;;;;;14.42;95.70;100022.91;6122977;23;20529;-89
2023/05/28 01:18:06;;;;;;;0.43;0.43;;;;;;;14.48;95.91;100046.16;6124272;23;20060;-89
2023/05/28 01:20:32;;;;;;;3.42;1.35;;;;;;;14.52;96.65;100055.16;6124502;23;20097;-88
2023/05/28 01:23:07;;;;;;;0.00;0.00;;;;;;;14.43;97.98;100041.22;6099884;23;20414;-89
2023/05/28 01:25:33;;;;;;;0.20;0.20;;;;;;;14.49;97.96;100056.09;6100304;23;20014;-90
2023/05/28 01:28:01;;;;;;;3.03;1.38;;;;;;;14.44;99.49;100053.91;6148003;23;20024;-90
2023/05/28 01:30:28;;;;;;;0.47;0.47;;;;;;;14.39;99.79;100055.34;6124095;23;20095;-89
2023/05/28 01:32:53;;;;;;;0.55;0.32;;;;;;;14.16;100.00;100029.97;6123852;23;20023;-90
2023/05/28 01:35:19;;;;;;;0.68;0.68;;;;;;;14.21;100.00;100046.09;6124116;23;20363;-89
2023/05/28 01:37:48;;;;;;;0.30;0.20;;;;;;;14.23;100.00;100049.22;6100667;23;20032;-90
2023/05/28 01:40:16;;;;;;;0.10;0.10;;;;;;;14.09;100.00;100019.09;6147850;23;20006;-91
2023/05/28 01:42:42;;;;;;;0.50;0.50;;;;;;;14.04;100.00;100017.69;6123739;23;20017;-90
2023/05/28 01:45:09;;;;;;;3.00;1.55;;;;;;;14.20;99.81;100039.75;6099581;23;20080;-90
2023/05/28 01:47:37;;;;;;;0.20;0.20;;;;;;;13.85;99.50;99986.22;6100695;23;20109;-91
2023/05/28 01:50:04;;;;;;;3.85;0.73;;;;;;;14.01;99.24;100013.84;6123739;23;20442;-90
2023/05/28 01:52:29;;;;;;;0.22;0.22;;;;;;;13.94;98.39;99999.41;6124387;23;20551;-90
2023/05/28 01:54:55;;;;;;;0.45;0.45;;;;;;;14.10;99.29;100034.63;6124649;23;20041;-91
2023/05/28 01:57:21;;;;;;;0.85;0.65;;;;;;;14.05;98.73;100027.63;6100147;23;20037;-91
2023/05/28 01:59:48;;;;;;;6.45;0.75;;;;;;;13.71;99.36;99969.31;6148928;23;20400;-91
2023/05/28 02:02:13;;;;;;;1.17;1.00;;;;;;;14.09;99.76;100035.84;6117794;23;20151;-90
2023/05/28 02:04:39;;;;;;;1.60;1.50;;;;;;;13.83;100.00;99994.25;6094888;23;20556;-90
2023/05/28 02:07:05;;;;;;;0.65;0.65;;;;;;;14.02;100.00;100022.97;6093777;23;20018;-90
2023/05/28 02:09:30;;;;;;;0.60;0.52;;;;;;;13.91;100.00;100000.34;6119091;23;20009;-90
2023/05/28 02:11:58;;;;;;;0.00;0.00;;;;;;;13.93;100.00;100017.38;6093860;23;20140;-90
2023/05/28 02:14:25;;;;;;;3.00;1.45;;;;;;;13.60;100.00;99980.84;6095481;23;20029;-90
2023/05/28 02:16:52;;;;;;;6.10;1.60;;;;;;;13.83;100.00;100019.34;6093933;23;20345;-90
2023/05/28 02:19:18;;;;;;;1.95;1.75;;;;;;;13.85;100.00;100033.59;6094656;23;20014;-90
2023/05/28 02:21:45;;;;;;;4.95;1.85;;;;;;;13.66;100.00;100006.91;6094924;23;20357;-89
2023/05/28 02:24:10;;;;;;;0.50;0.50;;;;;;;13.76;100.00;100030.78;6093777;23;20073;-90
2023/05/28 02:26:36;;;;;;;1.50;1.40;;;;;;;13.77;100.00;100035.13;6070509;23;20002;-90
2023/05/28 02:29:02;;;;;;;0.30;0.30;;;;;;;13.74;100.00;100040.84;6118618;23;20056;-91
2023/05/28 02:31:27;;;;;;;0.50;0.50;;;;;;;13.64;100.00;100026.09;6091273;23;20049;-90
2023/05/28 02:33:53;;;;;;;0.28;0.10;;;;;;;13.57;100.00;100022.81;6117976;23;19998;-90
2023/05/28 02:36:18;;;;;;;1.10;0.55;;;;;;;13.78;100.00;100047.84;6118439;23;20033;-90
2023/05/28 02:38:44;;;;;;;3.80;0.73;;;;;;;13.68;100.00;100037.88;6119235;23;20669;-90
2023/05/28 02:41:10;;;;;;;0.32;0.32;;;;;;;13.57;100.00;100037.53;6070635;23;20021;-90
2023/05/28 02:43:38;;;;;;;0.50;0.50;;;;;;;13.68;100.00;100049.03;6119502;23;20093;-89
2023/05/28 02:46:06;;;;;;;0.00;0.00;;;;;;;13.44;100.00;100023.69;6070133;23;20006;-89
2023/05/28 02:48:33;;;;;;;0.10;0.10;;;;;;;13.64;100.00;100051.16;6093595;23;20049;-89
2023/05/28 02:50:59;;;;;;;0.47;0.47;;;;;;;13.44;100.00;100023.69;6093422;23;20013;-89
2023/05/28 02:53:47;;;;;;;0.22;0.22;;;;;;;13.63;100.00;100057.97;6111514;23;20244;-89
2023/05/28 02:56:13;;;;;;;0.73;0.73;;;;;;;13.44;100.00;100029.25;6068639;23;20045;-90
2023/05/28 02:58:43;;;;;;;0.40;0.40;;;;;;;13.24;100.00;100008.56;6072173;23;20093;-89
2023/05/28 03:01:08;;;;;;;0.22;0.13;;;;;;;13.23;100.00;100012.56;6071236;23;20471;-90
2023/05/28 03:03:35;;;;;;;0.13;0.13;;;;;;;13.28;100.00;100034.25;6119667;23;20030;-89
2023/05/28 03:06:01;;;;;;;1.55;1.30;;;;;;;13.46;100.00;100048.31;6097370;23;20110;-89
2023/05/28 03:08:30;;;;;;;0.43;0.43;;;;;;;13.32;100.00;100048.84;6122382;23;20044;-90
2023/05/28 03:10:55;;;;;;;0.80;0.80;;;;;;;13.34;100.00;100054.75;6073903;23;20401;-90
2023/05/28 03:13:21;;;;;;;1.25;0.75;;;;;;;13.19;100.00;100045.34;6096865;23;20006;-89
2023/05/28 03:15:47;;;;;;;0.85;0.40;;;;;;;13.29;100.00;100060.91;6096868;23;20129;-89
2023/05/28 03:18:13;;;;;;;0.50;0.50;;;;;;;13.20;100.00;100050.47;6120080;23;20005;-90
2023/05/28 03:20:39;;;;;;;0.13;0.13;;;;;;;12.96;100.00;100021.50;6096910;23;20025;-89
2023/05/28 03:23:05;;;;;;;0.20;0.20;;;;;;;13.16;100.00;100049.81;6096811;23;20048;-91
2023/05/28 03:25:39;;;;;;;0.20;0.17;;;;;;;12.86;100.00;100029.00;6098320;23;20088;-90
2023/05/28 03:28:05;;;;;;;1.50;1.30;;;;;;;12.91;100.00;100036.78;6120731;23;20454;-90
2023/05/28 03:30:45;;;;;;;0.55;0.55;;;;;;;12.72;100.00;100012.03;6099758;23;20475;-89
2023/05/28 03:33:10;;;;;;;0.47;0.47;;;;;;;13.09;100.00;100063.97;6095722;23;20009;-91
2023/05/28 03:35:37;;;;;;;0.22;0.22;;;;;;;12.96;100.00;100044.56;6072595;23;20018;-90
2023/05/28 03:38:02;;;;;;;0.80;0.55;;;;;;;12.91;100.00;100036.00;6072705;23;20018;-89
2023/05/28 03:40:28;;;;;;;0.47;0.47;;;;;;;12.96;100.00;100032.63;6120486;23;20282;-90
2023/05/28 03:42:54;;;;;;;0.10;0.10;;;;;;;13.22;100.00;100063.94;6120892;23;20022;-89
2023/05/28 03:45:19;;;;;;;0.40;0.40;;;;;;;13.26;100.00;100059.81;6071013;23;20022;-89
2023/05/28 03:47:45;;;;;;;0.32;0.32;;;;;;;13.19;100.00;100048.13;6095903;23;20562;-89
2023/05/28 03:50:11;;;;;;;0.73;0.20;;;;;;;13.09;100.00;100031.34;6096328;23;20428;-90
2023/05/28 03:52:37;;;;;;;0.68;0.68;;;;;;;13.29;100.00;100055.31;6095983;23;20018;-89
2023/05/28 03:55:03;;;;;;;0.50;0.50;;;;;;;13.22;100.00;100033.31;6071241;23;20016;-89
2023/05/28 03:57:29;;;;;;;0.55;0.43;;;;;;;13.31;100.00;100064.78;6095345;23;20028;-89
2023/05/28 03:59:57;;;;;;;0.80;0.80;;;;;;;13.20;100.00;100039.31;6095775;23;20056;-89
2023/05/28 04:02:23;;;;;;;0.85;0.70;;;;;;;13.32;100.00;100059.97;6093778;23;20025;-89
2023/05/28 04:04:49;;;;;;;1.48;1.25;;;;;;;13.35;100.00;100064.63;6096090;23;20022;-90
2023/05/28 04:07:14;;;;;;;1.10;0.47;;;;;;;13.19;100.00;100045.34;6120308;23;20072;-89
2023/05/28 04:09:40;;;;;;;0.13;0.13;;;;;;;13.00;100.00;100024.94;6072479;23;20067;-89
2023/05/28 04:12:06;;;;;;;0.13;0.13;;;;;;;13.16;100.00;100058.19;6072012;23;20018;-89
2023/05/28 04:14:32;;;;;;;0.32;0.32;;;;;;;13.17;100.00;100047.81;6095874;23;20570;-89
2023/05/28 04:16:57;;;;;;;4.28;2.13;;;;;;;13.13;100.00;100036.03;6071153;23;20053;-90
2023/05/28 04:19:23;;;;;;;0.00;0.00;;;;;;;13.33;100.00;100072.69;6071826;23;20056;-89
2023/05/28 04:21:49;;;;;;;0.75;0.73;;;;;;;13.38;100.00;100080.47;6120413;23;20013;-90
2023/05/28 04:24:14;;;;;;;0.38;0.32;;;;;;;13.20;100.00;100058.81;6119816;23;20014;-90
2023/05/28 04:26:40;;;;;;;0.88;0.73;;;;;;;13.39;100.00;100070.84;6095514;23;20014;-89
2023/05/28 04:29:06;;;;;;;1.00;0.90;;;;;;;13.23;100.00;100062.69;6095222;23;20025;-90
2023/05/28 04:31:32;;;;;;;0.00;0.00;;;;;;;13.15;100.00;100039.13;6071601;23;20021;-89
2023/05/28 04:33:58;;;;;;;1.30;1.10;;;;;;;13.17;100.00;100031.09;6095402;23;20045;-89
2023/05/28 04:36:29;;;;;;;0.73;0.73;;;;;;;13.28;100.00;100048.19;6095785;23;20426;-90
2023/05/28 04:38:56;;;;;;;0.68;0.68;;;;;;;13.21;100.00;100037.31;6096857;23;20022;-89
2023/05/28 04:41:23;;;;;;;0.43;0.35;;;;;;;13.47;100.00;100072.13;6119989;23;20401;-89
2023/05/28 04:43:49;;;;;;;1.27;1.08;;;;;;;13.19;100.00;100028.63;6119662;23;20022;-89
2023/05/28 04:46:16;;;;;;;0.08;0.08;;;;;;;13.48;100.00;100057.75;6095044;23;20021;-89
2023/05/28 04:48:41;;;;;;;0.20;0.20;;;;;;;13.27;100.00;100018.78;6095489;23;20018;-89
2023/05/28 04:51:07;;;;;;;0.45;0.45;;;;;;;13.44;100.00;100039.63;6095624;23;20681;-89
2023/05/28 04:53:36;;;;;;;1.02;0.90;;;;;;;13.49;100.00;100041.81;6071155;23;20471;-89
2023/05/28 04:56:03;;;;;;;1.20;1.10;;;;;;;13.48;100.00;100037.47;6120176;23;20014;-89
2023/05/28 04:58:30;;;;;;;0.05;0.05;;;;;;;13.65;100.00;100044.38;6072352;23;20472;-89
2023/05/28 05:00:57;;;;;;;0.52;0.52;;;;;;;13.75;100.00;100059.88;6095543;23;20029;-89
2023/05/28 05:03:23;;;;;;;0.98;0.80;;;;;;;13.86;100.00;100063.06;6094154;23;20524;-89
2023/05/28 05:05:48;;;;;;;0.75;0.75;;;;;;;13.88;100.00;100049.41;6119677;23;20021;-89
2023/05/28 05:08:14;;;;;;;3.97;0.65;;;;;;;14.05;100.00;100057.53;6070154;23;20026;-89
2023/05/28 05:10:42;;;;;;;1.15;1.00;;;;;;;14.14;100.00;100057.56;6094957;23;20017;-89
2023/05/28 05:13:08;;;;;;;0.65;0.65;;;;;;;14.20;100.00;100056.47;6119147;23;20018;-88
2023/05/28 05:15:33;;;;;;;0.28;0.28;;;;;;;14.20;100.00;100045.31;6071124;23;20096;-89
2023/05/28 05:17:59;;;;;;;0.22;0.22;;;;;;;14.38;100.00;100061.38;6094631;23;20018;-89
2023/05/28 05:20:27;;;;;;;0.52;0.52;;;;;;;14.53;98.72;100067.13;6071300;23;20014;-90
2023/05/28 05:22:52;;;;;;;2.67;0.85;;;;;;;14.41;98.08;100050.06;6099401;23;20022;-89
2023/05/28 05:25:19;;;;;;;1.55;1.10;;;;;;;14.67;96.99;100072.88;6118756;23;20017;-90
2023/05/28 05:27:50;;;;;;;0.68;0.45;;;;;;;14.89;97.61;100079.09;6072349;23;20010;-91
2023/05/28 05:30:16;;;;;;;1.33;0.82;;;;;;;14.78;94.90;100045.28;6094702;23;20472;-90
2023/05/28 05:32:42;;;;;;;0.60;0.60;;;;;;;14.97;92.65;100067.59;6118820;23;19998;-89
2023/05/28 05:35:08;;;;;;;1.95;1.23;;;;;;;15.04;92.88;100078.47;6094757;23;20056;-88
2023/05/28 05:37:53;;;;;;;0.32;0.22;;;;;;;15.01;93.62;100043.06;6118779;23;20072;-89
2023/05/28 05:40:48;;;;;;;0.88;0.85;;;;;;;15.27;91.13;100055.47;6119293;23;20014;-88
2023/05/28 05:43:35;;;;;;;2.55;0.98;;;;;;;15.61;89.26;100077.44;6098770;23;20025;-89
2023/05/28 05:46:01;;;;;;;0.10;0.10;;;;;;;15.55;86.31;100037.41;6069755;23;20535;-90
2023/05/28 05:48:29;;;;;;;1.40;0.95;;;;;;;15.78;85.04;100045.09;6116928;23;20053;-90
2023/05/28 05:50:57;;;;;;;0.10;0.10;;;;;;;16.20;83.66;100067.44;6094057;23;20014;-88
2023/05/28 05:53:23;;;;;;;0.80;0.80;;;;;;;16.38;80.00;100074.19;6070361;23;20009;-92
2023/05/28 05:55:50;;;;;;;0.10;0.10;;;;;;;16.34;77.03;100046.34;6093503;23;20034;-90
2023/05/28 05:58:16;;;;;;;0.32;0.25;;;;;;;16.52;76.38;100076.25;6117653;23;20134;-92
2023/05/28 06:00:42;;;;;;;2.30;0.63;;;;;;;16.23;76.91;100027.28;6069595;23;20041;-90
2023/05/28 06:03:09;;;;;;;0.32;0.32;;;;;;;16.58;76.24;100058.34;6115359;23;20025;-92
2023/05/28 06:05:53;;;;;;;1.00;0.75;;;;;;;16.80;75.46;100052.44;6118947;23;20033;-91
2023/05/28 06:08:29;;;;;;;0.17;0.17;;;;;;;16.88;72.56;100036.00;6095909;23;20519;-91
2023/05/28 06:11:00;;;;;;;0.30;0.30;;;;;;;17.08;70.91;100050.16;6116794;23;20038;-90
2023/05/28 06:13:28;;;;;;;0.10;0.10;;;;;;;17.17;70.91;100042.44;6070066;23;20051;-90
2023/05/28 06:15:54;;;;;;;3.22;1.13;;;;;;;17.37;72.77;100033.38;6118058;23;20218;-91
2023/05/28 06:18:21;;;;;;;3.35;1.05;;;;;;;17.64;69.46;100052.72;6117842;23;20016;-91
2023/05/28 06:20:49;;;;;;;1.45;0.57;;;;;;;17.69;67.90;100032.41;6093186;23;20013;-92
2023/05/28 06:23:15;;;;;;;1.65;0.85;;;;;;;17.80;65.96;100031.00;6068724;23;20464;-91
2023/05/28 06:25:41;;;;;;;0.55;0.47;;;;;;;17.94;64.54;100041.44;6118443;23;20085;-91
2023/05/28 06:28:08;;;;;;;0.15;0.15;;;;;;;18.15;63.49;100068.31;6119530;23;20001;-91
2023/05/28 06:30:34;;;;;;;0.43;0.38;;;;;;;18.10;62.68;100054.94;6143281;23;20021;-91
2023/05/28 06:33:00;;;;;;;0.65;0.65;;;;;;;18.12;63.55;100052.41;6113788;23;20014;-90
2023/05/28 06:35:26;;;;;;;0.73;0.55;;;;;;;18.29;64.25;100047.03;6092361;23;20021;-90
2023/05/28 06:37:52;;;;;;;0.30;0.30;;;;;;;18.52;63.48;100058.09;6094308;23;20414;-91
2023/05/28 06:40:18;;;;;;;0.93;0.70;;;;;;;18.44;60.52;100033.72;6070242;23;20014;-91
2023/05/28 06:42:44;;;;;;;1.33;0.90;;;;;;;18.51;60.31;100045.31;6143705;23;20021;-92
2023/05/28 06:45:19;;;;;;;0.13;0.13;;;;;;;18.75;61.57;100070.41;6119390;23;20072;-90
2023/05/28 06:47:45;;;;;;;0.30;0.30;;;;;;;18.74;61.05;100060.44;6069604;23;20348;-90
2023/05/28 06:50:11;;;;;;;2.00;1.08;;;;;;;18.73;60.72;100044.84;6118815;23;20017;-89
2023/05/28 06:52:37;;;;;;;0.45;0.32;;;;;;;19.13;59.74;100077.72;6143122;23;20367;-90
2023/05/28 06:55:05;;;;;;;0.82;0.45;;;;;;;19.23;60.13;100076.31;6069364;23;20073;-89
2023/05/28 06:57:32;;;;;;;0.40;0.40;;;;;;;19.37;59.23;100064.16;6117780;23;20021;-90
2023/05/28 07:00:24;;;;;;;0.38;0.38;;;;;;;19.60;58.71;100051.13;6116425;23;20022;-91
2023/05/28 07:03:03;;;;;;;0.55;0.55;;;;;;;19.91;56.54;100067.22;6095742;23;20030;-90
2023/05/28 07:05:44;;;;;;;1.17;0.45;;;;;;;19.69;56.34;100050.19;6097404;23;20426;-91
2023/05/28 07:08:10;;;;;;;1.23;1.13;;;;;;;19.83;55.31;100066.91;6119131;23;20037;-91
2023/05/28 07:10:35;;;;;;;0.38;0.38;;;;;;;19.98;54.90;100066.75;6118784;23;20406;-91
2023/05/28 07:13:01;;;;;;;6.35;1.63;;;;;;;20.16;55.51;100074.81;6094203;23;20102;-92
2023/05/28 07:15:27;;;;;;;0.47;0.47;;;;;;;20.31;54.62;100060.59;6094700;23;20045;-91
2023/05/28 07:17:52;;;;;;;0.43;0.40;;;;;;;20.35;52.33;100045.00;6094845;23;20350;-91
2023/05/28 07:20:18;;;;;;;0.65;0.65;;;;;;;20.51;53.11;100042.78;6069638;23;20018;-92
2023/05/28 07:22:53;;;;;;;4.03;1.65;;;;;;;20.53;52.32;100043.03;6096461;23;20026;-91
2023/05/28 07:25:19;;;;;;;0.55;0.55;;;;;;;20.63;51.70;100050.00;6088524;23;20320;-92
2023/05/28 07:27:45;;;;;;;0.30;0.30;;;;;;;20.83;51.12;100052.63;6067428;23;20009;-92
2023/05/28 07:30:13;;;;;;;1.40;0.77;;;;;;;21.23;50.84;100071.25;6092248;23;20017;-93
2023/05/28 07:32:39;;;;;;;0.55;0.55;;;;;;;21.40;50.50;100064.34;6115017;23;20022;-92
2023/05/28 07:35:06;;;;;;;0.10;0.10;;;;;;;21.53;49.88;100066.66;6067728;23;20013;-92
2023/05/28 07:37:32;;;;;;;0.80;0.45;;;;;;;21.65;49.82;100067.44;6089912;23;20036;-92
2023/05/28 07:39:58;;;;;;;0.60;0.60;;;;;;;21.67;48.42;100053.59;6068366;23;20010;-92
2023/05/28 07:42:24;;;;;;;0.17;0.17;;;;;;;21.60;48.93;100060.50;6091604;23;20026;-92
2023/05/28 07:44:59;;;;;;;1.08;0.55;;;;;;;21.96;48.24;100058.72;6094978;23;20459;-92
2023/05/28 07:47:24;;;;;;;0.38;0.38;;;;;;;21.86;48.17;100046.91;6066631;23;20021;-91
2023/05/28 07:50:13;;;;;;;1.08;0.55;;;;;;;22.36;48.07;100059.44;6107335;23;20093;-91
2023/05/28 07:52:56;;;;;;;0.32;0.32;;;;;;;22.33;46.59;100047.88;6121560;23;20025;-91
2023/05/28 07:55:22;;;;;;;1.00;0.43;;;;;;;22.50;47.42;100050.66;6118147;23;20330;-92
2023/05/28 07:57:48;;;;;;;0.65;0.65;;;;;;;22.62;47.10;100051.38;6117362;23;20471;-91
2023/05/28 08:00:15;;;;;;;0.50;0.50;;;;;;;22.70;46.39;100049.56;6142050;23;20388;-91
2023/05/28 08:03:01;;;;;;;0.30;0.30;;;;;;;22.90;45.07;100046.41;6116451;23;20010;-91
2023/05/28 08:05:38;;;;;;;0.63;0.55;;;;;;;23.11;46.46;100052.47;6142129;23;20053;-91
2023/05/28 08:08:04;;;;;;;0.20;0.20;;;;;;;23.17;45.49;100045.47;6118146;23;20507;-92
2023/05/28 08:10:30;;;;;;;0.60;0.60;;;;;;;23.48;45.79;100058.41;6067796;23;20453;-91
2023/05/28 08:12:56;;;;;;;3.28;0.32;;;;;;;23.69;45.52;100041.78;6117881;23;20084;-89
2023/05/28 08:15:23;;;;;;;0.40;0.40;;;;;;;23.51;44.61;100040.38;6116193;23;20010;-89
2023/05/28 08:17:50;;;;;;;2.80;1.20;;;;;;;23.46;44.67;100046.06;6091721;23;20089;-87
2023/05/28 08:20:22;;;;;;;0.90;0.70;;;;;;;23.22;44.88;100024.84;6091412;23;20041;-89
2023/05/28 08:22:56;;;;;;;0.90;0.90;;;;;;;23.44;44.73;100031.69;6069940;23;20060;-89
2023/05/28 08:25:23;;;;;;;1.58;1.15;;;;;;;23.59;45.25;100034.91;6141229;23;20041;-89
2023/05/28 08:27:55;;;;;;;1.55;0.55;;;;;;;23.65;44.95;100035.63;6142377;23;20048;-90
2023/05/28 08:30:21;;;;;;;0.10;0.10;;;;;;;23.72;44.84;100031.44;6115684;23;20028;-89
2023/05/28 08:33:04;;;;;;;0.80;0.65;;;;;;;23.76;44.61;100044.03;6095218;23;20045;-90
2023/05/28 08:35:30;;;;;;;1.70;0.90;;;;;;;23.85;43.94;100006.88;6117153;23;20088;-89
2023/05/28 08:37:59;;;;;;;0.60;0.60;;;;;;;24.41;44.19;100028.97;6092924;23;20061;-89
2023/05/28 08:40:39;;;;;;;0.32;0.32;;;;;;;24.41;43.68;100034.66;6118639;23;20014;-89
2023/05/28 08:43:04;;;;;;;0.40;0.40;;;;;;;24.45;42.28;100035.88;6093049;23;20025;-90
2023/05/28 08:45:31;;;;;;;1.08;0.95;;;;;;;24.51;43.75;99998.94;6116249;23;20010;-90
2023/05/28 08:47:56;;;;;;;0.77;0.65;;;;;;;24.54;42.77;100023.41;6116705;23;20025;-91
2023/05/28 08:50:24;;;;;;;0.43;0.43;;;;;;;24.80;42.62;100034.94;6116769;23;20021;-88
2023/05/28 08:53:15;;;;;;;2.38;1.20;;;;;;;24.98;41.08;100042.72;6094799;23;20020;-89
2023/05/28 08:55:43;;;;;;;;;;;;;;;24.51;42.83;100039.41;6092790;23;20017;-90
2023/05/28 08:58:14;;;;;;;0.47;0.47;;;;;;;24.78;42.20;100034.72;6067635;23;19916;-91
2023/05/28 09:00:42;;;;;;;3.10;1.08;;;;;;;24.88;42.81;100033.03;6091845;23;20084;-90
2023/05/28 09:03:26;;;;;;;1.27;1.10;;;;;;;24.77;42.58;100021.81;6094870;23;20458;-90
2023/05/28 09:05:56;;;;;;;0.70;0.70;;;;;;;25.55;42.40;100034.94;6092340;23;20096;-90
2023/05/28 09:08:22;;;;;;;0.32;0.30;;;;;;;26.00;41.19;100029.97;6091547;23;20021;-89
2023/05/28 09:10:48;;;;;;;0.40;0.40;;;;;;;26.17;40.75;99994.78;6116355;23;20010;-89
2023/05/28 09:13:14;;;;;;;0.70;0.70;;;;;;;26.00;40.28;99997.97;6115253;23;20412;-89
2023/05/28 09:15:41;;;;;;;0.43;0.43;;;;;;;25.05;40.89;100013.72;6115666;23;20407;-89
2023/05/28 09:18:08;;;;;;;0.98;0.93;;;;;;;24.34;43.52;100013.34;6114358;23;20013;-91
2023/05/28 09:20:34;;;;;;;0.70;0.70;;;;;;;24.50;45.08;100014.44;6090302;23;20014;-93
2023/05/28 09:23:03;;;;;;;0.55;0.40;;;;;;;24.88;43.44;100021.69;6092290;23;20078;-92
2023/05/28 09:26:09;;;;;;;0.90;0.77;;;;;;;25.41;43.14;100016.25;6068094;23;20022;-92
2023/05/28 09:28:42;;;;;;;0.77;0.77;;;;;;;25.36;41.90;99991.56;6067543;23;20018;-92
2023/05/28 09:31:08;;;;;;;0.50;0.45;;;;;;;25.85;41.95;100004.19;6117779;23;20455;-91
2023/05/28 09:33:33;;;;;;;1.17;1.08;;;;;;;25.90;41.13;99989.09;6116185;23;20395;-92
2023/05/28 09:36:00;;;;;;;0.95;0.47;;;;;;;26.26;39.63;99998.00;6118399;23;20459;-89
2023/05/28 09:38:27;;;;;;;1.05;0.35;;;;;;;26.43;39.79;99998.44;6115319;23;20436;-89
2023/05/28 09:40:56;;;;;;;0.52;0.52;;;;;;;26.34;40.28;99995.25;6116841;23;20022;-89
2023/05/28 09:43:30;;;;;;;0.95;0.82;;;;;;;26.86;39.83;99992.38;6114620;23;20086;-88
2023/05/28 09:46:07;;;;;;;2.00;1.10;;;;;;;27.03;40.25;99991.22;6093351;23;20072;-89
2023/05/28 09:48:32;;;;;;;4.22;0.63;;;;;;;27.20;39.13;99992.38;6114845;23;20041;-89
2023/05/28 09:51:00;;;;;;;2.30;1.50;;;;;;;26.94;39.27;99985.97;6136307;23;20471;-89
2023/05/28 09:53:26;;;;;;;2.45;1.02;;;;;;;26.94;38.59;99981.06;6087006;23;20267;-89
2023/05/28 09:55:52;;;;;;;1.15;1.08;;;;;;;26.70;39.85;99982.09;6113760;23;20305;-89
2023/05/28 09:58:18;;;;;;;0.98;0.85;;;;;;;26.89;38.80;99974.19;6114221;23;20064;-89
2023/05/28 10:00:52;;;;;;;0.70;0.65;;;;;;;27.06;39.14;99970.19;6115118;23;20014;-89
2023/05/28 10:03:47;;;;;;;22.67;1.75;;;;;;;27.16;38.40;99988.31;6114051;23;20041;-88
2023/05/28 10:06:21;;;;;;;0.40;0.40;;;;;;;27.09;38.11;99949.16;6109770;23;20060;-89
2023/05/28 10:08:50;;;;;;;0.77;0.60;;;;;;;27.02;38.73;99975.44;6092473;23;20021;-89
2023/05/28 10:11:19;;;;;;;2.30;1.40;;;;;;;27.08;39.13;99978.94;6115314;23;20101;-89
2023/05/28 10:13:45;;;;;;;0.50;0.50;;;;;;;26.80;39.57;99943.34;6115861;23;20033;-88
2023/05/28 10:16:11;;;;;;;0.70;0.70;;;;;;;26.99;39.25;99970.88;6117133;23;20024;-89
2023/05/28 10:18:37;;;;;;;0.50;0.50;;;;;;;26.98;39.33;99975.78;6091464;23;20006;-87
2023/05/28 10:21:03;;;;;;;0.55;0.55;;;;;;;26.76;39.05;99953.53;6118532;23;20070;-88
2023/05/28 10:23:28;;;;;;;0.45;0.40;;;;;;;27.02;39.61;99958.38;6115735;23;20025;-90
2023/05/28 10:25:54;;;;;;;2.05;0.70;;;;;;;26.65;38.73;99948.81;6117757;23;20073;-89
2023/05/28 10:28:21;;;;;;;1.30;0.75;;;;;;;26.79;40.88;99941.78;6092452;23;20023;-88
2023/05/28 10:31:06;;;;;;;0.38;0.38;;;;;;;27.17;39.30;99944.31;6117144;23;20018;-89
2023/05/28 10:33:36;;;;;;;0.95;0.85;;;;;;;27.28;38.67;99958.25;6116842;23;20447;-89
2023/05/28 10:36:02;;;;;;;0.50;0.50;;;;;;;27.21;38.43;99927.63;6116943;23;20028;-90
2023/05/28 10:38:28;;;;;;;0.43;0.43;;;;;;;27.46;37.33;99923.09;6092131;23;20101;-90
2023/05/28 10:41:01;;;;;;;1.15;1.05;;;;;;;27.66;37.25;99942.28;6116066;23;20029;-89
2023/05/28 10:43:50;;;;;;;1.70;1.58;;;;;;;27.40;37.42;99922.50;6092239;23;20049;-90
2023/05/28 10:46:26;;;;;;;3.08;1.20;;;;;;;27.25;37.38;99930.91;6068279;23;20088;-89
2023/05/28 10:49:08;;;;;;;0.65;0.50;;;;;;;27.40;37.50;99948.13;6116722;23;20026;-89
2023/05/28 10:52:00;;;;;;;1.42;0.65;;;;;;;27.51;37.41;99947.84;6092382;23;20064;-88
2023/05/28 10:54:45;;;;;;;1.30;0.77;;;;;;;27.52;36.74;99938.00;6116760;23;20073;-89
2023/05/28 10:57:11;;;;;;;0.50;0.47;;;;;;;28.03;36.15;99951.66;6117414;23;20060;-87
2023/05/28 10:59:45;;;;;;;0.88;0.88;;;;;;;27.89;36.51;99930.28;6116541;23;20010;-89
2023/05/28 11:02:10;;;;;;;0.65;0.52;;;;;;;27.82;36.96;99943.91;6121751;23;20095;-95
2023/05/28 11:04:36;;;;;;;0.40;0.40;;;;;;;28.06;37.58;99939.16;6069172;23;20014;-95
2023/05/28 11:07:03;;;;;;;2.10;1.15;;;;;;;27.90;36.39;99923.28;6117012;23;20048;-95
2023/05/28 11:09:28;;;;;;;0.45;0.45;;;;;;;27.87;36.71;99927.22;6117782;23;20098;-93
2023/05/28 11:11:59;;;;;;;1.52;1.20;;;;;;;28.10;36.88;99939.56;6093293;23;20022;-90
2023/05/28 11:14:24;;;;;;;4.70;1.83;;;;;;;27.80;37.29;99915.22;6116780;23;20014;-90
2023/05/28 11:16:50;;;;;;;1.45;0.93;;;;;;;28.09;35.94;99926.63;6091970;23;20419;-89
2023/05/28 11:19:15;;;;;;;0.80;0.80;;;;;;;28.09;37.02;99912.38;6091174;23;20560;-89
2023/05/28 11:21:50;;;;;;;3.63;1.48;;;;;;;28.17;37.47;99924.59;6091430;23;20022;-89
2023/05/28 11:24:15;;;;;;;1.30;0.95;;;;;;;28.52;35.75;99929.50;6092800;23;20014;-89
2023/05/28 11:26:41;;;;;;;0.38;0.38;;;;;;;28.40;36.53;99916.91;6070761;23;20080;-89
2023/05/28 11:29:06;;;;;;;1.20;1.10;;;;;;;28.89;35.70;99921.66;6094276;23;20022;-89
2023/05/28 11:31:41;;;;;;;0.57;0.57;;;;;;;28.79;34.92;99912.13;6094077;23;20148;-90
2023/05/28 11:34:10;;;;;;;2.72;0.65;;;;;;;28.99;35.42;99906.25;6118435;23;20475;-89